sensor_id;sensor_type;location;lat;lon;timestamp;pressure;altitude;pressure_sealevel;temperature;humidity
66762;BME280;53672;48.176;16.338;2023-02-13T00:01:43;101240.28;;;4.23;91.20
66762;BME280;53672;48.176;16.338;2023-02-13T00:06:43;101237.72;;;4.15;90.75
66762;BME280;53672;48.176;16.338;2023-02-13T00:11:44;101228.94;;;3.99;91.66
66762;BME280;53672;48.176;16.338;2023-02-13T00:16:46;101228.47;;;3.81;92.44
66762;BME280;53672;48.176;16.338;2023-02-13T00:21:46;101233.47;;;3.70;93.83
66762;BME280;53672;48.176;16.338;2023-02-13T00:26:47;101226.75;;;3.59;94.58
66762;BME280;53672;48.176;16.338;2023-02-13T00:31:49;101240.16;;;3.51;95.02
66762;BME280;53672;48.176;16.338;2023-02-13T00:36:49;101250.06;;;3.42;95.32
66762;BME280;53672;48.176;16.338;2023-02-13T00:41:50;101238.19;;;3.30;95.20
66762;BME280;53672;48.176;16.338;2023-02-13T00:46:52;101242.94;;;3.20;96.32
66762;BME280;53672;48.176;16.338;2023-02-13T00:51:52;101253.19;;;3.08;96.56
66762;BME280;53672;48.176;16.338;2023-02-13T00:56:53;101263.94;;;3.00;96.93
66762;BME280;53672;48.176;16.338;2023-02-13T01:01:55;101251.97;;;2.96;97.05
66762;BME280;53672;48.176;16.338;2023-02-13T01:06:55;101260.22;;;2.87;97.62
66762;BME280;53672;48.176;16.338;2023-02-13T01:11:57;101253.09;;;2.79;97.28
66762;BME280;53672;48.176;16.338;2023-02-13T01:16:59;101248.19;;;2.68;97.81
66762;BME280;53672;48.176;16.338;2023-02-13T01:22:00;101248.44;;;2.59;98.76
66762;BME280;53672;48.176;16.338;2023-02-13T01:27:00;101249.63;;;2.56;98.83
66762;BME280;53672;48.176;16.338;2023-02-13T01:32:02;101242.78;;;2.53;99.88
66762;BME280;53672;48.176;16.338;2023-02-13T01:37:03;101247.13;;;2.54;100.00
66762;BME280;53672;48.176;16.338;2023-02-13T01:42:04;101245.75;;;2.59;100.00
66762;BME280;53672;48.176;16.338;2023-02-13T01:47:07;101244.06;;;2.66;100.00
66762;BME280;53672;48.176;16.338;2023-02-13T01:52:09;101238.38;;;2.69;100.00
66762;BME280;53672;48.176;16.338;2023-02-13T01:57:14;101240.03;;;2.70;99.63
66762;BME280;53672;48.176;16.338;2023-02-13T02:02:18;101239.16;;;2.77;99.17
66762;BME280;53672;48.176;16.338;2023-02-13T02:07:21;101239.44;;;2.82;98.40
66762;BME280;53672;48.176;16.338;2023-02-13T02:12:26;101229.78;;;2.81;98.07
66762;BME280;53672;48.176;16.338;2023-02-13T02:17:29;101228.91;;;2.89;97.98
66762;BME280;53672;48.176;16.338;2023-02-13T02:22:58;101227.69;;;2.91;97.45
66762;BME280;53672;48.176;16.338;2023-02-13T02:28:31;101225.44;;;3.03;97.13
66762;BME280;53672;48.176;16.338;2023-02-13T02:33:44;101213.69;;;3.12;96.20
66762;BME280;53672;48.176;16.338;2023-02-13T02:39:00;101207.13;;;3.23;95.83
66762;BME280;53672;48.176;16.338;2023-02-13T02:44:11;101196.75;;;3.28;94.84
66762;BME280;53672;48.176;16.338;2023-02-13T02:49:17;101192.16;;;3.36;94.41
66762;BME280;53672;48.176;16.338;2023-02-13T02:54:23;101204.09;;;3.40;93.48
66762;BME280;53672;48.176;16.338;2023-02-13T02:59:27;101209.72;;;3.45;93.48
66762;BME280;53672;48.176;16.338;2023-02-13T03:04:33;101203.66;;;3.51;92.42
66762;BME280;53672;48.176;16.338;2023-02-13T03:09:38;101201.63;;;3.53;92.44
66762;BME280;53672;48.176;16.338;2023-02-13T03:14:40;101204.75;;;3.57;92.21
66762;BME280;53672;48.176;16.338;2023-02-13T03:19:53;101198.41;;;3.58;91.94
66762;BME280;53672;48.176;16.338;2023-02-13T03:25:04;101194.56;;;3.61;91.56
66762;BME280;53672;48.176;16.338;2023-02-13T03:30:15;101190.34;;;3.66;90.71
66762;BME280;53672;48.176;16.338;2023-02-13T03:35:26;101195.28;;;3.69;90.68
66762;BME280;53672;48.176;16.338;2023-02-13T03:40:34;101186.09;;;3.72;90.00
66762;BME280;53672;48.176;16.338;2023-02-13T03:45:38;101188.22;;;3.76;89.61
66762;BME280;53672;48.176;16.338;2023-02-13T03:50:42;101196.84;;;3.78;89.77
66762;BME280;53672;48.176;16.338;2023-02-13T03:55:46;101192.59;;;3.84;88.85
66762;BME280;53672;48.176;16.338;2023-02-13T04:00:49;101197.59;;;3.87;88.65
66762;BME280;53672;48.176;16.338;2023-02-13T04:05:55;101197.38;;;3.88;88.71
66762;BME280;53672;48.176;16.338;2023-02-13T04:11:05;101189.13;;;3.83;88.45
66762;BME280;53672;48.176;16.338;2023-02-13T04:16:10;101184.44;;;3.85;89.29
66762;BME280;53672;48.176;16.338;2023-02-13T04:21:15;101181.59;;;3.87;88.32
66762;BME280;53672;48.176;16.338;2023-02-13T04:26:17;101180.00;;;3.92;87.77
66762;BME280;53672;48.176;16.338;2023-02-13T04:31:18;101189.66;;;3.93;87.71
66762;BME280;53672;48.176;16.338;2023-02-13T04:36:20;101180.84;;;3.93;87.84
66762;BME280;53672;48.176;16.338;2023-02-13T04:41:21;101177.72;;;3.89;88.31
66762;BME280;53672;48.176;16.338;2023-02-13T04:46:21;101176.03;;;3.88;88.24
66762;BME280;53672;48.176;16.338;2023-02-13T04:51:23;101179.16;;;3.92;87.83
66762;BME280;53672;48.176;16.338;2023-02-13T04:56:23;101175.94;;;3.96;87.29
66762;BME280;53672;48.176;16.338;2023-02-13T05:01:24;101176.78;;;3.97;87.39
66762;BME280;53672;48.176;16.338;2023-02-13T05:06:26;101173.75;;;4.00;86.79
66762;BME280;53672;48.176;16.338;2023-02-13T05:11:26;101178.09;;;4.07;86.54
66762;BME280;53672;48.176;16.338;2023-02-13T05:16:27;101178.38;;;4.13;86.23
66762;BME280;53672;48.176;16.338;2023-02-13T05:21:29;101178.84;;;4.16;86.13
66762;BME280;53672;48.176;16.338;2023-02-13T05:26:29;101183.19;;;4.17;85.94
66762;BME280;53672;48.176;16.338;2023-02-13T05:31:30;101185.63;;;4.19;85.78
66762;BME280;53672;48.176;16.338;2023-02-13T05:36:31;101179.28;;;4.20;85.65
66762;BME280;53672;48.176;16.338;2023-02-13T05:41:32;101187.75;;;4.23;85.35
66762;BME280;53672;48.176;16.338;2023-02-13T05:46:32;101183.25;;;4.24;84.74
66762;BME280;53672;48.176;16.338;2023-02-13T05:51:34;101192.72;;;4.26;84.74
66762;BME280;53672;48.176;16.338;2023-02-13T05:56:35;101195.19;;;4.28;84.20
66762;BME280;53672;48.176;16.338;2023-02-13T06:01:35;101198.88;;;4.27;84.41
66762;BME280;53672;48.176;16.338;2023-02-13T06:06:37;101197.22;;;4.26;84.56
66762;BME280;53672;48.176;16.338;2023-02-13T06:11:38;101204.38;;;4.25;84.59
66762;BME280;53672;48.176;16.338;2023-02-13T06:16:39;101203.38;;;4.26;84.27
66762;BME280;53672;48.176;16.338;2023-02-13T06:21:40;101201.34;;;4.28;84.44
66762;BME280;53672;48.176;16.338;2023-02-13T06:26:41;101209.16;;;4.30;84.30
66762;BME280;53672;48.176;16.338;2023-02-13T06:31:42;101217.81;;;4.32;84.34
66762;BME280;53672;48.176;16.338;2023-02-13T06:36:43;101215.78;;;4.34;83.84
66762;BME280;53672;48.176;16.338;2023-02-13T06:41:44;101217.47;;;4.35;83.83
66762;BME280;53672;48.176;16.338;2023-02-13T06:46:44;101221.59;;;4.37;83.87
66762;BME280;53672;48.176;16.338;2023-02-13T06:51:46;101228.22;;;4.41;83.66
66762;BME280;53672;48.176;16.338;2023-02-13T06:56:47;101225.72;;;4.40;83.67
66762;BME280;53672;48.176;16.338;2023-02-13T07:01:47;101227.38;;;4.41;83.83
66762;BME280;53672;48.176;16.338;2023-02-13T07:06:49;101232.72;;;4.41;83.39
66762;BME280;53672;48.176;16.338;2023-02-13T07:11:50;101238.28;;;4.46;83.80
66762;BME280;53672;48.176;16.338;2023-02-13T07:16:50;101238.75;;;4.49;83.45
66762;BME280;53672;48.176;16.338;2023-02-13T07:21:52;101244.53;;;4.53;83.01
66762;BME280;53672;48.176;16.338;2023-02-13T07:26:53;101249.13;;;4.59;82.96
66762;BME280;53672;48.176;16.338;2023-02-13T07:31:53;101244.66;;;4.66;82.48
66762;BME280;53672;48.176;16.338;2023-02-13T07:36:55;101255.63;;;4.71;82.45
66762;BME280;53672;48.176;16.338;2023-02-13T07:41:55;101254.03;;;4.77;81.85
66762;BME280;53672;48.176;16.338;2023-02-13T07:46:56;101258.44;;;4.84;81.86
66762;BME280;53672;48.176;16.338;2023-02-13T07:51:58;101253.34;;;4.89;81.30
66762;BME280;53672;48.176;16.338;2023-02-13T07:56:58;101253.78;;;4.93;81.40
66762;BME280;53672;48.176;16.338;2023-02-13T08:01:59;101254.88;;;4.98;81.42
66762;BME280;53672;48.176;16.338;2023-02-13T08:07:01;101246.13;;;5.11;81.76
66762;BME280;53672;48.176;16.338;2023-02-13T08:12:02;101255.69;;;5.20;80.89
66762;BME280;53672;48.176;16.338;2023-02-13T08:17:02;101259.03;;;5.29;80.49
66762;BME280;53672;48.176;16.338;2023-02-13T08:22:04;101266.28;;;5.35;80.21
66762;BME280;53672;48.176;16.338;2023-02-13T08:27:05;101261.75;;;5.35;79.75
66762;BME280;53672;48.176;16.338;2023-02-13T08:32:06;101264.91;;;5.45;79.65
66762;BME280;53672;48.176;16.338;2023-02-13T08:37:08;101263.50;;;5.49;79.28
66762;BME280;53672;48.176;16.338;2023-02-13T08:42:09;101262.53;;;5.57;79.23
66762;BME280;53672;48.176;16.338;2023-02-13T08:47:09;101265.03;;;5.65;78.68
66762;BME280;53672;48.176;16.338;2023-02-13T08:52:11;101271.34;;;5.79;78.58
66762;BME280;53672;48.176;16.338;2023-02-13T08:57:12;101258.25;;;5.90;77.79
66762;BME280;53672;48.176;16.338;2023-02-13T09:02:13;101268.16;;;5.96;77.96
66762;BME280;53672;48.176;16.338;2023-02-13T09:07:14;101270.25;;;6.01;77.61
66762;BME280;53672;48.176;16.338;2023-02-13T09:12:15;101256.50;;;6.10;77.22
66762;BME280;53672;48.176;16.338;2023-02-13T09:17:16;101264.31;;;6.05;77.40
66762;BME280;53672;48.176;16.338;2023-02-13T09:22:18;101267.41;;;6.09;76.98
66762;BME280;53672;48.176;16.338;2023-02-13T09:27:18;101261.22;;;6.08;77.06
66762;BME280;53672;48.176;16.338;2023-02-13T09:32:19;101270.28;;;6.07;77.42
66762;BME280;53672;48.176;16.338;2023-02-13T09:37:21;101276.28;;;6.09;77.73
66762;BME280;53672;48.176;16.338;2023-02-13T09:42:24;101279.34;;;6.13;77.85
66762;BME280;53672;48.176;16.338;2023-02-13T09:47:28;101288.53;;;6.32;77.69
66762;BME280;53672;48.176;16.338;2023-02-13T09:52:33;101286.84;;;6.24;77.75
66762;BME280;53672;48.176;16.338;2023-02-13T09:57:40;101283.16;;;6.32;77.55
66762;BME280;53672;48.176;16.338;2023-02-13T10:02:50;101288.09;;;6.28;77.79
66762;BME280;53672;48.176;16.338;2023-02-13T10:08:00;101286.47;;;6.34;77.66
66762;BME280;53672;48.176;16.338;2023-02-13T10:13:19;101290.63;;;6.43;77.48
66762;BME280;53672;48.176;16.338;2023-02-13T10:18:29;101294.94;;;6.44;77.58
66762;BME280;53672;48.176;16.338;2023-02-13T10:23:38;101294.34;;;6.48;77.45
66762;BME280;53672;48.176;16.338;2023-02-13T10:28:43;101296.47;;;6.66;76.63
66762;BME280;53672;48.176;16.338;2023-02-13T10:33:48;101278.41;;;6.81;76.18
66762;BME280;53672;48.176;16.338;2023-02-13T10:38:56;101277.16;;;6.90;75.72
66762;BME280;53672;48.176;16.338;2023-02-13T10:49:32;101249.16;;;7.32;74.24
66762;BME280;53672;48.176;16.338;2023-02-13T11:00:15;101251.06;;;8.02;71.83
66762;BME280;53672;48.176;16.338;2023-02-13T11:05:20;101245.28;;;8.05;70.93
66762;BME280;53672;48.176;16.338;2023-02-13T11:10:25;101238.59;;;8.28;70.19
66762;BME280;53672;48.176;16.338;2023-02-13T11:15:27;101242.75;;;8.30;69.24
66762;BME280;53672;48.176;16.338;2023-02-13T11:20:32;101241.34;;;8.14;68.78
66762;BME280;53672;48.176;16.338;2023-02-13T11:25:34;101233.88;;;8.16;68.84
66762;BME280;53672;48.176;16.338;2023-02-13T11:30:36;101230.41;;;8.09;68.73
66762;BME280;53672;48.176;16.338;2023-02-13T11:35:38;101228.72;;;8.22;68.49
66762;BME280;53672;48.176;16.338;2023-02-13T11:40:40;101225.78;;;8.23;67.67
66762;BME280;53672;48.176;16.338;2023-02-13T11:45:42;101230.25;;;8.49;67.06
66762;BME280;53672;48.176;16.338;2023-02-13T11:50:51;101223.19;;;8.54;66.46
66762;BME280;53672;48.176;16.338;2023-02-13T11:56:06;101222.19;;;8.49;66.34
66762;BME280;53672;48.176;16.338;2023-02-13T12:01:23;101226.78;;;8.42;66.21
66762;BME280;53672;48.176;16.338;2023-02-13T12:06:24;101226.16;;;8.40;66.59
66762;BME280;53672;48.176;16.338;2023-02-13T12:11:33;101226.78;;;8.42;65.92
66762;BME280;53672;48.176;16.338;2023-02-13T12:16:38;101222.44;;;8.41;65.68
66762;BME280;53672;48.176;16.338;2023-02-13T12:21:52;101214.59;;;8.39;65.47
66762;BME280;53672;48.176;16.338;2023-02-13T12:27:05;101195.19;;;8.37;64.85
66762;BME280;53672;48.176;16.338;2023-02-13T12:32:18;101191.50;;;8.18;64.55
66762;BME280;53672;48.176;16.338;2023-02-13T12:37:29;101186.16;;;8.12;64.98
66762;BME280;53672;48.176;16.338;2023-02-13T12:42:39;101181.00;;;8.17;65.01
66762;BME280;53672;48.176;16.338;2023-02-13T12:47:57;101183.88;;;8.15;65.02
66762;BME280;53672;48.176;16.338;2023-02-13T12:58:40;101178.47;;;8.35;64.21
66762;BME280;53672;48.176;16.338;2023-02-13T13:03:53;101180.97;;;8.61;63.41
66762;BME280;53672;48.176;16.338;2023-02-13T13:14:39;101180.56;;;9.14;61.33
66762;BME280;53672;48.176;16.338;2023-02-13T13:19:48;101179.44;;;9.22;59.86
66762;BME280;53672;48.176;16.338;2023-02-13T13:25:02;101176.44;;;9.54;58.88
66762;BME280;53672;48.176;16.338;2023-02-13T13:30:12;101174.09;;;10.12;56.57
66762;BME280;53672;48.176;16.338;2023-02-13T13:35:17;101159.72;;;10.37;55.22
66762;BME280;53672;48.176;16.338;2023-02-13T13:40:27;101166.63;;;10.74;53.50
66762;BME280;53672;48.176;16.338;2023-02-13T13:45:38;101164.88;;;11.03;52.37
66762;BME280;53672;48.176;16.338;2023-02-13T13:50:41;101169.44;;;10.79;52.89
66762;BME280;53672;48.176;16.338;2023-02-13T13:56:05;101157.25;;;11.00;53.59
66762;BME280;53672;48.176;16.338;2023-02-13T14:01:27;101159.81;;;10.83;52.65
66762;BME280;53672;48.176;16.338;2023-02-13T14:12:36;101150.25;;;9.98;53.72
66762;BME280;53672;48.176;16.338;2023-02-13T14:17:51;101146.78;;;9.79;54.50
66762;BME280;53672;48.176;16.338;2023-02-13T14:22:52;101147.50;;;9.68;55.06
66762;BME280;53672;48.176;16.338;2023-02-13T14:27:57;101142.50;;;9.53;54.79
66762;BME280;53672;48.176;16.338;2023-02-13T14:33:01;101151.81;;;9.33;56.41
66762;BME280;53672;48.176;16.338;2023-02-13T14:38:03;101154.91;;;9.11;58.05
66762;BME280;53672;48.176;16.338;2023-02-13T14:43:18;101154.16;;;9.04;58.08
66762;BME280;53672;48.176;16.338;2023-02-13T14:48:21;101157.72;;;8.98;58.03
66762;BME280;53672;48.176;16.338;2023-02-13T14:53:27;101152.47;;;8.85;58.04
66762;BME280;53672;48.176;16.338;2023-02-13T14:58:32;101150.44;;;8.81;57.93
66762;BME280;53672;48.176;16.338;2023-02-13T15:03:37;101150.22;;;8.82;58.21
66762;BME280;53672;48.176;16.338;2023-02-13T15:08:46;101137.03;;;8.74;57.63
66762;BME280;53672;48.176;16.338;2023-02-13T15:13:49;101137.09;;;8.68;58.74
66762;BME280;53672;48.176;16.338;2023-02-13T15:18:50;101138.47;;;8.52;58.82
66762;BME280;53672;48.176;16.338;2023-02-13T15:23:54;101126.97;;;8.38;58.85
66762;BME280;53672;48.176;16.338;2023-02-13T15:29:02;101139.19;;;8.28;59.43
66762;BME280;53672;48.176;16.338;2023-02-13T15:34:03;101134.50;;;8.16;60.42
66762;BME280;53672;48.176;16.338;2023-02-13T15:39:15;101137.44;;;8.08;60.65
66762;BME280;53672;48.176;16.338;2023-02-13T15:44:19;101142.88;;;7.95;61.02
66762;BME280;53672;48.176;16.338;2023-02-13T15:49:24;101144.34;;;7.91;61.71
66762;BME280;53672;48.176;16.338;2023-02-13T15:54:26;101138.56;;;7.88;62.02
66762;BME280;53672;48.176;16.338;2023-02-13T15:59:32;101136.34;;;7.78;62.53
66762;BME280;53672;48.176;16.338;2023-02-13T16:04:34;101140.06;;;7.71;63.17
66762;BME280;53672;48.176;16.338;2023-02-13T16:09:37;101144.44;;;7.65;63.94
66762;BME280;53672;48.176;16.338;2023-02-13T16:14:45;101148.59;;;7.61;64.57
66762;BME280;53672;48.176;16.338;2023-02-13T16:19:52;101149.00;;;7.58;64.46
66762;BME280;53672;48.176;16.338;2023-02-13T16:25:02;101155.81;;;7.54;65.14
66762;BME280;53672;48.176;16.338;2023-02-13T16:30:06;101146.97;;;7.47;65.59
66762;BME280;53672;48.176;16.338;2023-02-13T16:35:23;101146.16;;;7.40;65.46
66762;BME280;53672;48.176;16.338;2023-02-13T16:40:37;101153.00;;;7.36;65.82
66762;BME280;53672;48.176;16.338;2023-02-13T16:45:40;101149.91;;;7.32;66.06
66762;BME280;53672;48.176;16.338;2023-02-13T16:50:41;101151.13;;;7.30;66.84
66762;BME280;53672;48.176;16.338;2023-02-13T16:55:43;101142.47;;;7.28;66.69
66762;BME280;53672;48.176;16.338;2023-02-13T17:00:49;101142.28;;;7.23;67.03
66762;BME280;53672;48.176;16.338;2023-02-13T17:05:50;101137.31;;;7.20;67.41
66762;BME280;53672;48.176;16.338;2023-02-13T17:11:01;101136.13;;;7.16;67.41
66762;BME280;53672;48.176;16.338;2023-02-13T17:16:06;101144.78;;;7.11;67.80
66762;BME280;53672;48.176;16.338;2023-02-13T17:21:07;101143.13;;;7.10;67.58
66762;BME280;53672;48.176;16.338;2023-02-13T17:26:08;101144.38;;;7.07;67.62
66762;BME280;53672;48.176;16.338;2023-02-13T17:31:11;101137.16;;;7.01;68.01
66762;BME280;53672;48.176;16.338;2023-02-13T17:36:12;101131.16;;;6.99;68.23
66762;BME280;53672;48.176;16.338;2023-02-13T17:41:14;101130.56;;;6.97;69.04
66762;BME280;53672;48.176;16.338;2023-02-13T17:46:20;101137.38;;;6.93;68.49
66762;BME280;53672;48.176;16.338;2023-02-13T17:51:20;101141.50;;;6.89;68.55
66762;BME280;53672;48.176;16.338;2023-02-13T17:56:21;101136.53;;;6.86;68.74
66762;BME280;53672;48.176;16.338;2023-02-13T18:01:24;101127.06;;;6.84;68.99
66762;BME280;53672;48.176;16.338;2023-02-13T18:06:25;101120.47;;;6.80;68.89
66762;BME280;53672;48.176;16.338;2023-02-13T18:11:26;101118.81;;;6.79;69.03
66762;BME280;53672;48.176;16.338;2023-02-13T18:16:28;101117.38;;;6.76;68.93
66762;BME280;53672;48.176;16.338;2023-02-13T18:21:31;101109.75;;;6.73;69.40
66762;BME280;53672;48.176;16.338;2023-02-13T18:26:32;101099.47;;;6.70;69.14
66762;BME280;53672;48.176;16.338;2023-02-13T18:31:35;101091.19;;;6.65;69.10
66762;BME280;53672;48.176;16.338;2023-02-13T18:36:36;101088.53;;;6.65;69.08
66762;BME280;53672;48.176;16.338;2023-02-13T18:41:38;101087.50;;;6.66;69.52
66762;BME280;53672;48.176;16.338;2023-02-13T18:46:40;101092.63;;;6.61;69.43
66762;BME280;53672;48.176;16.338;2023-02-13T18:51:41;101087.09;;;6.56;69.56
66762;BME280;53672;48.176;16.338;2023-02-13T18:56:42;101070.59;;;6.52;69.52
66762;BME280;53672;48.176;16.338;2023-02-13T19:01:44;101076.16;;;6.51;69.82
66762;BME280;53672;48.176;16.338;2023-02-13T19:06:45;101089.97;;;6.48;69.92
66762;BME280;53672;48.176;16.338;2023-02-13T19:11:46;101080.69;;;6.44;69.60
66762;BME280;53672;48.176;16.338;2023-02-13T19:16:49;101078.22;;;6.42;69.50
66762;BME280;53672;48.176;16.338;2023-02-13T19:21:50;101073.47;;;6.38;69.30
66762;BME280;53672;48.176;16.338;2023-02-13T19:26:51;101078.00;;;6.31;68.86
66762;BME280;53672;48.176;16.338;2023-02-13T19:31:53;101066.69;;;6.29;69.60
66762;BME280;53672;48.176;16.338;2023-02-13T19:36:55;101064.00;;;6.29;69.47
66762;BME280;53672;48.176;16.338;2023-02-13T19:41:56;101063.16;;;6.22;68.88
66762;BME280;53672;48.176;16.338;2023-02-13T19:46:59;101072.22;;;6.21;69.17
66762;BME280;53672;48.176;16.338;2023-02-13T19:52:00;101068.94;;;6.19;69.10
66762;BME280;53672;48.176;16.338;2023-02-13T19:57:01;101062.34;;;6.21;69.49
66762;BME280;53672;48.176;16.338;2023-02-13T20:02:04;101070.19;;;6.16;69.37
66762;BME280;53672;48.176;16.338;2023-02-13T20:07:06;101072.22;;;6.14;69.80
66762;BME280;53672;48.176;16.338;2023-02-13T20:12:07;101073.03;;;6.08;69.36
66762;BME280;53672;48.176;16.338;2023-02-13T20:17:10;101069.34;;;6.09;70.17
66762;BME280;53672;48.176;16.338;2023-02-13T20:22:11;101077.56;;;6.07;70.09
66762;BME280;53672;48.176;16.338;2023-02-13T20:27:12;101059.41;;;6.03;69.80
66762;BME280;53672;48.176;16.338;2023-02-13T20:32:15;101072.19;;;6.01;70.33
66762;BME280;53672;48.176;16.338;2023-02-13T20:37:16;101063.75;;;5.97;70.25
66762;BME280;53672;48.176;16.338;2023-02-13T20:42:17;101063.91;;;5.89;70.19
66762;BME280;53672;48.176;16.338;2023-02-13T20:47:21;101071.34;;;5.87;70.50
66762;BME280;53672;48.176;16.338;2023-02-13T20:52:22;101066.78;;;5.81;70.70
66762;BME280;53672;48.176;16.338;2023-02-13T20:57:24;101083.25;;;5.85;70.76
66762;BME280;53672;48.176;16.338;2023-02-13T21:02:27;101080.97;;;5.82;71.12
66762;BME280;53672;48.176;16.338;2023-02-13T21:07:27;101081.16;;;5.80;70.49
66762;BME280;53672;48.176;16.338;2023-02-13T21:12:28;101084.44;;;5.76;70.83
66762;BME280;53672;48.176;16.338;2023-02-13T21:17:30;101067.94;;;5.66;70.65
66762;BME280;53672;48.176;16.338;2023-02-13T21:22:31;101053.91;;;5.50;71.13
66762;BME280;53672;48.176;16.338;2023-02-13T21:27:33;101056.09;;;5.34;71.04
66762;BME280;53672;48.176;16.338;2023-02-13T21:32:37;101058.91;;;5.19;71.82
66762;BME280;53672;48.176;16.338;2023-02-13T21:37:38;101050.00;;;5.05;72.14
66762;BME280;53672;48.176;16.338;2023-02-13T21:42:38;101053.34;;;4.86;72.88
66762;BME280;53672;48.176;16.338;2023-02-13T21:47:40;101072.56;;;4.69;72.88
66762;BME280;53672;48.176;16.338;2023-02-13T21:52:41;101068.97;;;4.55;74.07
66762;BME280;53672;48.176;16.338;2023-02-13T21:57:42;101078.72;;;4.41;74.62
66762;BME280;53672;48.176;16.338;2023-02-13T22:02:44;101077.38;;;4.31;75.70
66762;BME280;53672;48.176;16.338;2023-02-13T22:07:44;101083.41;;;4.18;76.22
66762;BME280;53672;48.176;16.338;2023-02-13T22:12:49;101099.28;;;4.05;77.04
66762;BME280;53672;48.176;16.338;2023-02-13T22:17:51;101112.31;;;3.93;77.95
66762;BME280;53672;48.176;16.338;2023-02-13T22:22:52;101110.19;;;3.89;78.12
66762;BME280;53672;48.176;16.338;2023-02-13T22:27:52;101111.03;;;3.89;78.98
66762;BME280;53672;48.176;16.338;2023-02-13T22:32:54;101107.78;;;3.94;78.63
66762;BME280;53672;48.176;16.338;2023-02-13T22:37:55;101108.22;;;3.97;78.53
66762;BME280;53672;48.176;16.338;2023-02-13T22:42:55;101102.09;;;3.97;78.73
66762;BME280;53672;48.176;16.338;2023-02-13T22:47:57;101116.44;;;3.96;78.77
66762;BME280;53672;48.176;16.338;2023-02-13T22:52:58;101110.44;;;3.94;78.94
66762;BME280;53672;48.176;16.338;2023-02-13T22:57:58;101118.03;;;3.90;79.02
66762;BME280;53672;48.176;16.338;2023-02-13T23:03:00;101123.63;;;3.81;79.26
66762;BME280;53672;48.176;16.338;2023-02-13T23:08:01;101122.28;;;3.70;79.88
66762;BME280;53672;48.176;16.338;2023-02-13T23:13:05;101114.94;;;3.57;80.46
66762;BME280;53672;48.176;16.338;2023-02-13T23:18:10;101123.16;;;3.41;80.91
66762;BME280;53672;48.176;16.338;2023-02-13T23:23:10;101128.94;;;3.30;81.43
66762;BME280;53672;48.176;16.338;2023-02-13T23:28:11;101127.75;;;3.18;82.78
66762;BME280;53672;48.176;16.338;2023-02-13T23:33:13;101125.53;;;3.07;83.43
66762;BME280;53672;48.176;16.338;2023-02-13T23:38:13;101120.56;;;3.04;83.29
66762;BME280;53672;48.176;16.338;2023-02-13T23:43:14;101117.09;;;3.03;83.76
66762;BME280;53672;48.176;16.338;2023-02-13T23:48:16;101110.91;;;3.03;83.67
66762;BME280;53672;48.176;16.338;2023-02-13T23:53:16;101105.88;;;3.08;83.58
66762;BME280;53672;48.176;16.338;2023-02-13T23:58:17;101104.13;;;3.15;83.32
